sensor_id;sensor_type;location;lat;lon;timestamp;P1;durP1;ratioP1;P2;durP2;ratioP2
31128;SDS011;17777;48.770;8.944;2023-06-05T00:01:39;5.28;;;1.20;;
31128;SDS011;17777;48.770;8.944;2023-06-05T00:04:04;1.48;;;1.02;;
31128;SDS011;17777;48.770;8.944;2023-06-05T00:06:30;1.23;;;1.05;;
31128;SDS011;17777;48.770;8.944;2023-06-05T00:08:56;1.52;;;1.02;;
31128;SDS011;17777;48.770;8.944;2023-06-05T00:11:23;1.45;;;1.17;;
31128;SDS011;17777;48.770;8.944;2023-06-05T00:13:49;2.03;;;1.00;;
31128;SDS011;17777;48.770;8.944;2023-06-05T00:16:15;1.92;;;1.00;;
31128;SDS011;17777;48.770;8.944;2023-06-05T00:18:42;0.90;;;0.80;;
31128;SDS011;17777;48.770;8.944;2023-06-05T00:21:09;2.38;;;0.90;;
31128;SDS011;17777;48.770;8.944;2023-06-05T00:23:35;1.15;;;1.00;;
31128;SDS011;17777;48.770;8.944;2023-06-05T00:26:01;1.13;;;0.93;;
31128;SDS011;17777;48.770;8.944;2023-06-05T00:28:26;1.50;;;0.93;;
31128;SDS011;17777;48.770;8.944;2023-06-05T00:30:52;7.78;;;1.92;;
31128;SDS011;17777;48.770;8.944;2023-06-05T00:33:19;1.40;;;0.90;;
31128;SDS011;17777;48.770;8.944;2023-06-05T00:35:45;2.13;;;0.90;;
31128;SDS011;17777;48.770;8.944;2023-06-05T00:38:11;1.58;;;1.20;;
31128;SDS011;17777;48.770;8.944;2023-06-05T00:40:37;3.72;;;0.90;;
31128;SDS011;17777;48.770;8.944;2023-06-05T00:43:03;6.43;;;1.30;;
31128;SDS011;17777;48.770;8.944;2023-06-05T00:45:30;3.70;;;1.00;;
31128;SDS011;17777;48.770;8.944;2023-06-05T00:47:57;3.65;;;1.25;;
31128;SDS011;17777;48.770;8.944;2023-06-05T00:50:24;1.65;;;1.05;;
31128;SDS011;17777;48.770;8.944;2023-06-05T00:52:50;1.60;;;0.98;;
31128;SDS011;17777;48.770;8.944;2023-06-05T00:55:19;1.35;;;1.00;;
31128;SDS011;17777;48.770;8.944;2023-06-05T00:57:45;1.30;;;1.10;;
31128;SDS011;17777;48.770;8.944;2023-06-05T01:00:11;2.90;;;1.00;;
31128;SDS011;17777;48.770;8.944;2023-06-05T01:02:40;4.22;;;1.13;;
31128;SDS011;17777;48.770;8.944;2023-06-05T01:05:07;2.30;;;0.90;;
31128;SDS011;17777;48.770;8.944;2023-06-05T01:07:33;3.20;;;1.00;;
31128;SDS011;17777;48.770;8.944;2023-06-05T01:10:03;1.25;;;0.80;;
31128;SDS011;17777;48.770;8.944;2023-06-05T01:12:46;2.63;;;1.00;;
31128;SDS011;17777;48.770;8.944;2023-06-05T01:15:17;2.55;;;1.10;;
31128;SDS011;17777;48.770;8.944;2023-06-05T01:17:53;2.95;;;1.10;;
31128;SDS011;17777;48.770;8.944;2023-06-05T01:20:37;2.95;;;1.25;;
31128;SDS011;17777;48.770;8.944;2023-06-05T01:23:05;3.75;;;1.25;;
31128;SDS011;17777;48.770;8.944;2023-06-05T01:25:34;2.30;;;1.10;;
31128;SDS011;17777;48.770;8.944;2023-06-05T01:28:20;3.30;;;1.08;;
31128;SDS011;17777;48.770;8.944;2023-06-05T01:31:00;6.30;;;1.38;;
31128;SDS011;17777;48.770;8.944;2023-06-05T01:33:32;2.55;;;1.13;;
31128;SDS011;17777;48.770;8.944;2023-06-05T01:36:08;1.95;;;1.17;;
31128;SDS011;17777;48.770;8.944;2023-06-05T01:38:38;1.20;;;0.98;;
31128;SDS011;17777;48.770;8.944;2023-06-05T01:41:06;2.25;;;1.15;;
31128;SDS011;17777;48.770;8.944;2023-06-05T01:43:33;3.58;;;1.15;;
31128;SDS011;17777;48.770;8.944;2023-06-05T01:46:03;1.33;;;1.00;;
31128;SDS011;17777;48.770;8.944;2023-06-05T01:48:32;1.02;;;0.93;;
31128;SDS011;17777;48.770;8.944;2023-06-05T01:50:59;2.47;;;1.17;;
31128;SDS011;17777;48.770;8.944;2023-06-05T01:53:28;3.55;;;1.10;;
31128;SDS011;17777;48.770;8.944;2023-06-05T01:55:54;1.10;;;1.00;;
31128;SDS011;17777;48.770;8.944;2023-06-05T01:58:22;1.70;;;1.08;;
31128;SDS011;17777;48.770;8.944;2023-06-05T02:00:49;2.33;;;1.05;;
31128;SDS011;17777;48.770;8.944;2023-06-05T02:03:17;3.90;;;1.25;;
31128;SDS011;17777;48.770;8.944;2023-06-05T02:05:44;4.22;;;1.23;;
31128;SDS011;17777;48.770;8.944;2023-06-05T02:08:10;2.33;;;1.10;;
31128;SDS011;17777;48.770;8.944;2023-06-05T02:10:37;3.35;;;1.00;;
31128;SDS011;17777;48.770;8.944;2023-06-05T02:13:05;2.85;;;1.08;;
31128;SDS011;17777;48.770;8.944;2023-06-05T02:15:31;2.67;;;0.90;;
31128;SDS011;17777;48.770;8.944;2023-06-05T02:18:01;3.38;;;1.02;;
31128;SDS011;17777;48.770;8.944;2023-06-05T02:20:30;3.30;;;1.08;;
31128;SDS011;17777;48.770;8.944;2023-06-05T02:22:57;1.85;;;1.00;;
31128;SDS011;17777;48.770;8.944;2023-06-05T02:25:23;1.75;;;0.90;;
31128;SDS011;17777;48.770;8.944;2023-06-05T02:27:53;1.30;;;0.85;;
31128;SDS011;17777;48.770;8.944;2023-06-05T02:30:20;5.28;;;1.00;;
31128;SDS011;17777;48.770;8.944;2023-06-05T02:32:47;2.28;;;1.20;;
31128;SDS011;17777;48.770;8.944;2023-06-05T02:35:15;1.45;;;1.10;;
31128;SDS011;17777;48.770;8.944;2023-06-05T02:37:41;1.73;;;1.10;;
31128;SDS011;17777;48.770;8.944;2023-06-05T02:40:12;3.58;;;1.30;;
31128;SDS011;17777;48.770;8.944;2023-06-05T02:42:39;1.67;;;1.10;;
31128;SDS011;17777;48.770;8.944;2023-06-05T02:45:06;1.40;;;1.00;;
31128;SDS011;17777;48.770;8.944;2023-06-05T02:47:33;1.10;;;1.00;;
31128;SDS011;17777;48.770;8.944;2023-06-05T02:50:01;2.33;;;0.90;;
31128;SDS011;17777;48.770;8.944;2023-06-05T02:52:32;2.80;;;0.85;;
31128;SDS011;17777;48.770;8.944;2023-06-05T02:55:02;2.17;;;1.00;;
31128;SDS011;17777;48.770;8.944;2023-06-05T02:57:30;1.13;;;0.80;;
31128;SDS011;17777;48.770;8.944;2023-06-05T02:59:59;1.55;;;1.00;;
31128;SDS011;17777;48.770;8.944;2023-06-05T03:02:28;1.13;;;0.90;;
31128;SDS011;17777;48.770;8.944;2023-06-05T03:04:54;1.67;;;1.17;;
31128;SDS011;17777;48.770;8.944;2023-06-05T03:07:24;1.20;;;0.90;;
31128;SDS011;17777;48.770;8.944;2023-06-05T03:09:51;3.75;;;1.25;;
31128;SDS011;17777;48.770;8.944;2023-06-05T03:12:16;1.10;;;0.98;;
31128;SDS011;17777;48.770;8.944;2023-06-05T03:14:42;1.90;;;1.15;;
31128;SDS011;17777;48.770;8.944;2023-06-05T03:17:08;1.35;;;1.02;;
31128;SDS011;17777;48.770;8.944;2023-06-05T03:19:36;3.45;;;1.90;;
31128;SDS011;17777;48.770;8.944;2023-06-05T03:22:03;3.15;;;0.95;;
31128;SDS011;17777;48.770;8.944;2023-06-05T03:24:30;1.58;;;1.27;;
31128;SDS011;17777;48.770;8.944;2023-06-05T03:27:02;1.10;;;0.90;;
31128;SDS011;17777;48.770;8.944;2023-06-05T03:29:29;1.55;;;1.30;;
31128;SDS011;17777;48.770;8.944;2023-06-05T03:31:56;1.42;;;1.10;;
31128;SDS011;17777;48.770;8.944;2023-06-05T03:34:22;1.40;;;1.17;;
31128;SDS011;17777;48.770;8.944;2023-06-05T03:36:52;1.20;;;0.90;;
31128;SDS011;17777;48.770;8.944;2023-06-05T03:39:18;1.42;;;1.00;;
31128;SDS011;17777;48.770;8.944;2023-06-05T03:41:45;1.90;;;1.20;;
31128;SDS011;17777;48.770;8.944;2023-06-05T03:44:11;4.80;;;1.17;;
31128;SDS011;17777;48.770;8.944;2023-06-05T03:46:37;1.40;;;1.05;;
31128;SDS011;17777;48.770;8.944;2023-06-05T03:49:04;1.52;;;0.98;;
31128;SDS011;17777;48.770;8.944;2023-06-05T03:51:34;1.83;;;1.05;;
31128;SDS011;17777;48.770;8.944;2023-06-05T03:54:01;2.08;;;1.10;;
31128;SDS011;17777;48.770;8.944;2023-06-05T03:56:29;3.15;;;1.40;;
31128;SDS011;17777;48.770;8.944;2023-06-05T03:59:02;1.38;;;1.23;;
31128;SDS011;17777;48.770;8.944;2023-06-05T04:01:42;1.40;;;1.08;;
31128;SDS011;17777;48.770;8.944;2023-06-05T04:04:08;0.95;;;0.80;;
31128;SDS011;17777;48.770;8.944;2023-06-05T04:06:33;2.10;;;1.00;;
31128;SDS011;17777;48.770;8.944;2023-06-05T04:09:02;1.52;;;1.05;;
31128;SDS011;17777;48.770;8.944;2023-06-05T04:11:40;2.53;;;1.20;;
31128;SDS011;17777;48.770;8.944;2023-06-05T04:14:09;1.20;;;1.10;;
31128;SDS011;17777;48.770;8.944;2023-06-05T04:16:36;2.38;;;1.65;;
31128;SDS011;17777;48.770;8.944;2023-06-05T04:19:12;3.47;;;1.10;;
31128;SDS011;17777;48.770;8.944;2023-06-05T04:21:41;1.65;;;1.20;;
31128;SDS011;17777;48.770;8.944;2023-06-05T04:24:08;1.83;;;1.35;;
31128;SDS011;17777;48.770;8.944;2023-06-05T04:26:36;1.60;;;1.27;;
31128;SDS011;17777;48.770;8.944;2023-06-05T04:29:04;1.90;;;1.00;;
31128;SDS011;17777;48.770;8.944;2023-06-05T04:31:34;3.28;;;1.20;;
31128;SDS011;17777;48.770;8.944;2023-06-05T04:34:00;1.95;;;1.13;;
31128;SDS011;17777;48.770;8.944;2023-06-05T04:36:27;1.85;;;1.20;;
31128;SDS011;17777;48.770;8.944;2023-06-05T04:38:53;1.80;;;1.10;;
31128;SDS011;17777;48.770;8.944;2023-06-05T04:41:19;2.95;;;1.30;;
31128;SDS011;17777;48.770;8.944;2023-06-05T04:43:47;1.30;;;1.10;;
31128;SDS011;17777;48.770;8.944;2023-06-05T04:46:14;1.52;;;1.08;;
31128;SDS011;17777;48.770;8.944;2023-06-05T04:48:40;3.42;;;1.48;;
31128;SDS011;17777;48.770;8.944;2023-06-05T04:51:06;1.63;;;1.52;;
31128;SDS011;17777;48.770;8.944;2023-06-05T04:53:32;1.65;;;1.17;;
31128;SDS011;17777;48.770;8.944;2023-06-05T04:56:00;2.20;;;1.33;;
31128;SDS011;17777;48.770;8.944;2023-06-05T04:58:29;2.53;;;1.50;;
31128;SDS011;17777;48.770;8.944;2023-06-05T05:00:56;2.15;;;1.25;;
31128;SDS011;17777;48.770;8.944;2023-06-05T05:03:30;3.97;;;1.67;;
31128;SDS011;17777;48.770;8.944;2023-06-05T05:05:57;2.15;;;1.05;;
31128;SDS011;17777;48.770;8.944;2023-06-05T05:08:23;1.05;;;0.95;;
31128;SDS011;17777;48.770;8.944;2023-06-05T05:10:49;2.00;;;1.40;;
31128;SDS011;17777;48.770;8.944;2023-06-05T05:13:15;4.75;;;1.67;;
31128;SDS011;17777;48.770;8.944;2023-06-05T05:15:41;1.50;;;1.40;;
31128;SDS011;17777;48.770;8.944;2023-06-05T05:18:07;1.20;;;1.10;;
31128;SDS011;17777;48.770;8.944;2023-06-05T05:20:33;1.10;;;0.98;;
31128;SDS011;17777;48.770;8.944;2023-06-05T05:23:00;2.38;;;1.08;;
31128;SDS011;17777;48.770;8.944;2023-06-05T05:25:26;2.33;;;1.60;;
31128;SDS011;17777;48.770;8.944;2023-06-05T05:27:52;2.97;;;1.60;;
31128;SDS011;17777;48.770;8.944;2023-06-05T05:30:18;1.17;;;1.05;;
31128;SDS011;17777;48.770;8.944;2023-06-05T05:32:44;2.00;;;1.42;;
31128;SDS011;17777;48.770;8.944;2023-06-05T05:35:11;4.88;;;1.45;;
31128;SDS011;17777;48.770;8.944;2023-06-05T05:37:37;1.45;;;1.30;;
31128;SDS011;17777;48.770;8.944;2023-06-05T05:40:03;1.27;;;1.13;;
31128;SDS011;17777;48.770;8.944;2023-06-05T05:42:31;1.58;;;1.27;;
31128;SDS011;17777;48.770;8.944;2023-06-05T05:44:58;2.05;;;1.23;;
31128;SDS011;17777;48.770;8.944;2023-06-05T05:47:24;2.03;;;1.60;;
31128;SDS011;17777;48.770;8.944;2023-06-05T05:49:50;2.00;;;1.77;;
31128;SDS011;17777;48.770;8.944;2023-06-05T05:52:16;1.33;;;1.20;;
31128;SDS011;17777;48.770;8.944;2023-06-05T05:54:45;2.03;;;1.20;;
31128;SDS011;17777;48.770;8.944;2023-06-05T05:57:11;1.63;;;1.20;;
31128;SDS011;17777;48.770;8.944;2023-06-05T05:59:37;2.60;;;1.25;;
31128;SDS011;17777;48.770;8.944;2023-06-05T06:02:02;3.35;;;1.35;;
31128;SDS011;17777;48.770;8.944;2023-06-05T06:04:34;2.08;;;1.25;;
31128;SDS011;17777;48.770;8.944;2023-06-05T06:07:01;1.35;;;1.25;;
31128;SDS011;17777;48.770;8.944;2023-06-05T06:09:29;1.42;;;1.30;;
31128;SDS011;17777;48.770;8.944;2023-06-05T06:11:55;1.55;;;1.20;;
31128;SDS011;17777;48.770;8.944;2023-06-05T06:14:22;1.95;;;1.23;;
31128;SDS011;17777;48.770;8.944;2023-06-05T06:16:48;3.25;;;1.15;;
31128;SDS011;17777;48.770;8.944;2023-06-05T06:19:16;2.38;;;1.13;;
31128;SDS011;17777;48.770;8.944;2023-06-05T06:21:42;1.92;;;1.20;;
31128;SDS011;17777;48.770;8.944;2023-06-05T06:24:08;1.40;;;1.08;;
31128;SDS011;17777;48.770;8.944;2023-06-05T06:26:34;1.15;;;1.05;;
31128;SDS011;17777;48.770;8.944;2023-06-05T06:29:04;5.03;;;1.50;;
31128;SDS011;17777;48.770;8.944;2023-06-05T06:31:30;2.45;;;1.45;;
31128;SDS011;17777;48.770;8.944;2023-06-05T06:33:56;2.92;;;1.20;;
31128;SDS011;17777;48.770;8.944;2023-06-05T06:36:21;1.60;;;1.00;;
31128;SDS011;17777;48.770;8.944;2023-06-05T06:38:48;2.78;;;1.23;;
31128;SDS011;17777;48.770;8.944;2023-06-05T06:41:13;1.25;;;1.10;;
31128;SDS011;17777;48.770;8.944;2023-06-05T06:43:39;1.48;;;1.30;;
31128;SDS011;17777;48.770;8.944;2023-06-05T06:46:06;1.10;;;1.00;;
31128;SDS011;17777;48.770;8.944;2023-06-05T06:48:32;1.17;;;1.00;;
31128;SDS011;17777;48.770;8.944;2023-06-05T06:50:58;1.33;;;1.00;;
31128;SDS011;17777;48.770;8.944;2023-06-05T06:53:24;3.28;;;1.17;;
31128;SDS011;17777;48.770;8.944;2023-06-05T06:55:50;3.17;;;1.42;;
31128;SDS011;17777;48.770;8.944;2023-06-05T06:58:16;2.47;;;1.10;;
31128;SDS011;17777;48.770;8.944;2023-06-05T07:00:43;8.68;;;1.30;;
31128;SDS011;17777;48.770;8.944;2023-06-05T07:03:09;1.38;;;1.13;;
31128;SDS011;17777;48.770;8.944;2023-06-05T07:05:35;1.67;;;1.30;;
31128;SDS011;17777;48.770;8.944;2023-06-05T07:08:01;1.95;;;1.23;;
31128;SDS011;17777;48.770;8.944;2023-06-05T07:10:27;3.15;;;1.20;;
31128;SDS011;17777;48.770;8.944;2023-06-05T07:12:54;1.83;;;1.40;;
31128;SDS011;17777;48.770;8.944;2023-06-05T07:15:20;3.25;;;1.15;;
31128;SDS011;17777;48.770;8.944;2023-06-05T07:17:46;1.65;;;1.27;;
31128;SDS011;17777;48.770;8.944;2023-06-05T07:20:12;1.33;;;1.00;;
31128;SDS011;17777;48.770;8.944;2023-06-05T07:22:41;1.80;;;1.05;;
31128;SDS011;17777;48.770;8.944;2023-06-05T07:25:09;1.90;;;1.33;;
31128;SDS011;17777;48.770;8.944;2023-06-05T07:27:37;2.08;;;1.27;;
31128;SDS011;17777;48.770;8.944;2023-06-05T07:30:05;1.52;;;1.20;;
31128;SDS011;17777;48.770;8.944;2023-06-05T07:32:33;3.38;;;1.42;;
31128;SDS011;17777;48.770;8.944;2023-06-05T07:34:58;2.42;;;1.42;;
31128;SDS011;17777;48.770;8.944;2023-06-05T07:37:24;1.50;;;1.05;;
31128;SDS011;17777;48.770;8.944;2023-06-05T07:39:50;2.10;;;1.40;;
31128;SDS011;17777;48.770;8.944;2023-06-05T07:42:17;2.33;;;1.25;;
31128;SDS011;17777;48.770;8.944;2023-06-05T07:44:43;1.67;;;1.35;;
31128;SDS011;17777;48.770;8.944;2023-06-05T07:47:08;1.67;;;1.35;;
31128;SDS011;17777;48.770;8.944;2023-06-05T07:49:34;1.60;;;1.23;;
31128;SDS011;17777;48.770;8.944;2023-06-05T07:52:00;2.53;;;1.60;;
31128;SDS011;17777;48.770;8.944;2023-06-05T07:54:26;2.17;;;1.20;;
31128;SDS011;17777;48.770;8.944;2023-06-05T07:56:52;1.77;;;1.30;;
31128;SDS011;17777;48.770;8.944;2023-06-05T07:59:18;4.15;;;1.20;;
31128;SDS011;17777;48.770;8.944;2023-06-05T08:01:49;2.40;;;1.27;;
31128;SDS011;17777;48.770;8.944;2023-06-05T08:04:16;1.77;;;1.50;;
31128;SDS011;17777;48.770;8.944;2023-06-05T08:06:42;2.65;;;1.35;;
31128;SDS011;17777;48.770;8.944;2023-06-05T08:09:10;1.20;;;1.02;;
31128;SDS011;17777;48.770;8.944;2023-06-05T08:11:37;1.50;;;1.40;;
31128;SDS011;17777;48.770;8.944;2023-06-05T08:14:06;1.88;;;1.27;;
31128;SDS011;17777;48.770;8.944;2023-06-05T08:16:33;1.80;;;1.25;;
31128;SDS011;17777;48.770;8.944;2023-06-05T08:18:59;1.77;;;1.60;;
31128;SDS011;17777;48.770;8.944;2023-06-05T08:21:26;1.30;;;1.20;;
31128;SDS011;17777;48.770;8.944;2023-06-05T08:23:52;1.38;;;1.27;;
31128;SDS011;17777;48.770;8.944;2023-06-05T08:26:19;2.65;;;2.03;;
31128;SDS011;17777;48.770;8.944;2023-06-05T08:28:45;1.95;;;1.50;;
31128;SDS011;17777;48.770;8.944;2023-06-05T08:31:11;2.83;;;1.70;;
31128;SDS011;17777;48.770;8.944;2023-06-05T08:33:37;1.65;;;1.55;;
31128;SDS011;17777;48.770;8.944;2023-06-05T08:36:04;3.25;;;1.77;;
31128;SDS011;17777;48.770;8.944;2023-06-05T08:38:31;3.65;;;1.60;;
31128;SDS011;17777;48.770;8.944;2023-06-05T08:41:00;1.85;;;1.73;;
31128;SDS011;17777;48.770;8.944;2023-06-05T08:43:28;3.72;;;1.90;;
31128;SDS011;17777;48.770;8.944;2023-06-05T08:45:55;4.38;;;1.92;;
31128;SDS011;17777;48.770;8.944;2023-06-05T08:48:25;2.15;;;1.70;;
31128;SDS011;17777;48.770;8.944;2023-06-05T08:50:51;2.50;;;2.00;;
31128;SDS011;17777;48.770;8.944;2023-06-05T08:53:20;2.33;;;1.65;;
31128;SDS011;17777;48.770;8.944;2023-06-05T08:55:47;2.65;;;1.77;;
31128;SDS011;17777;48.770;8.944;2023-06-05T08:58:18;2.58;;;1.90;;
31128;SDS011;17777;48.770;8.944;2023-06-05T09:00:43;3.05;;;2.10;;
31128;SDS011;17777;48.770;8.944;2023-06-05T09:03:10;2.13;;;1.70;;
31128;SDS011;17777;48.770;8.944;2023-06-05T09:05:40;3.25;;;2.17;;
31128;SDS011;17777;48.770;8.944;2023-06-05T09:08:05;1.98;;;1.70;;
31128;SDS011;17777;48.770;8.944;2023-06-05T09:10:31;2.75;;;2.10;;
31128;SDS011;17777;48.770;8.944;2023-06-05T09:12:58;2.72;;;1.90;;
31128;SDS011;17777;48.770;8.944;2023-06-05T09:15:27;2.58;;;2.13;;
31128;SDS011;17777;48.770;8.944;2023-06-05T09:20:33;2.10;;;1.95;;
31128;SDS011;17777;48.770;8.944;2023-06-05T09:23:02;2.15;;;2.03;;
31128;SDS011;17777;48.770;8.944;2023-06-05T09:25:44;2.30;;;2.10;;
31128;SDS011;17777;48.770;8.944;2023-06-05T09:28:15;2.13;;;1.90;;
31128;SDS011;17777;48.770;8.944;2023-06-05T09:30:54;2.58;;;2.30;;
31128;SDS011;17777;48.770;8.944;2023-06-05T09:33:29;4.35;;;1.90;;
31128;SDS011;17777;48.770;8.944;2023-06-05T09:36:07;1.95;;;1.45;;
31128;SDS011;17777;48.770;8.944;2023-06-05T09:38:37;2.03;;;1.67;;
31128;SDS011;17777;48.770;8.944;2023-06-05T09:41:08;2.45;;;1.75;;
31128;SDS011;17777;48.770;8.944;2023-06-05T09:43:36;2.88;;;2.03;;
31128;SDS011;17777;48.770;8.944;2023-06-05T09:46:10;2.20;;;2.00;;
31128;SDS011;17777;48.770;8.944;2023-06-05T09:48:41;2.70;;;1.80;;
31128;SDS011;17777;48.770;8.944;2023-06-05T09:51:14;4.47;;;1.80;;
31128;SDS011;17777;48.770;8.944;2023-06-05T09:53:45;2.78;;;1.88;;
31128;SDS011;17777;48.770;8.944;2023-06-05T09:56:19;2.28;;;2.08;;
31128;SDS011;17777;48.770;8.944;2023-06-05T09:58:50;2.83;;;2.20;;
31128;SDS011;17777;48.770;8.944;2023-06-05T10:01:17;2.45;;;1.70;;
31128;SDS011;17777;48.770;8.944;2023-06-05T10:03:48;3.33;;;1.88;;
31128;SDS011;17777;48.770;8.944;2023-06-05T10:06:26;2.10;;;1.80;;
31128;SDS011;17777;48.770;8.944;2023-06-05T10:08:53;2.53;;;2.03;;
31128;SDS011;17777;48.770;8.944;2023-06-05T10:11:22;8.88;;;2.13;;
31128;SDS011;17777;48.770;8.944;2023-06-05T10:13:53;2.03;;;1.92;;
31128;SDS011;17777;48.770;8.944;2023-06-05T10:16:20;2.20;;;2.00;;
31128;SDS011;17777;48.770;8.944;2023-06-05T10:18:46;2.10;;;1.90;;
31128;SDS011;17777;48.770;8.944;2023-06-05T10:21:17;2.38;;;1.92;;
31128;SDS011;17777;48.770;8.944;2023-06-05T10:24:27;2.92;;;2.08;;
31128;SDS011;17777;48.770;8.944;2023-06-05T10:38:53;3.78;;;2.10;;
31128;SDS011;17777;48.770;8.944;2023-06-05T10:41:20;1.85;;;1.75;;
31128;SDS011;17777;48.770;8.944;2023-06-05T10:51:49;1.80;;;1.70;;
31128;SDS011;17777;48.770;8.944;2023-06-05T11:07:22;2.15;;;1.75;;
31128;SDS011;17777;48.770;8.944;2023-06-05T11:15:00;2.67;;;1.92;;
31128;SDS011;17777;48.770;8.944;2023-06-05T11:17:27;1.75;;;1.65;;
31128;SDS011;17777;48.770;8.944;2023-06-05T11:19:58;1.77;;;1.65;;
31128;SDS011;17777;48.770;8.944;2023-06-05T11:22:25;3.10;;;1.95;;
31128;SDS011;17777;48.770;8.944;2023-06-05T11:27:43;3.33;;;2.13;;
31128;SDS011;17777;48.770;8.944;2023-06-05T11:30:15;2.38;;;1.65;;
31128;SDS011;17777;48.770;8.944;2023-06-05T11:32:46;2.42;;;1.95;;
31128;SDS011;17777;48.770;8.944;2023-06-05T11:35:12;2.03;;;1.70;;
31128;SDS011;17777;48.770;8.944;2023-06-05T11:37:38;2.20;;;1.73;;
31128;SDS011;17777;48.770;8.944;2023-06-05T11:40:05;2.10;;;1.90;;
31128;SDS011;17777;48.770;8.944;2023-06-05T11:42:36;2.53;;;1.70;;
31128;SDS011;17777;48.770;8.944;2023-06-05T11:45:13;1.65;;;1.55;;
31128;SDS011;17777;48.770;8.944;2023-06-05T11:47:39;1.55;;;1.30;;
31128;SDS011;17777;48.770;8.944;2023-06-05T11:50:06;4.78;;;1.77;;
31128;SDS011;17777;48.770;8.944;2023-06-05T11:52:43;1.67;;;1.50;;
31128;SDS011;17777;48.770;8.944;2023-06-05T11:55:18;3.97;;;1.77;;
31128;SDS011;17777;48.770;8.944;2023-06-05T11:57:46;2.55;;;2.35;;
31128;SDS011;17777;48.770;8.944;2023-06-05T12:00:13;3.45;;;1.83;;
31128;SDS011;17777;48.770;8.944;2023-06-05T12:02:41;2.15;;;1.60;;
31128;SDS011;17777;48.770;8.944;2023-06-05T12:05:08;1.92;;;1.55;;
31128;SDS011;17777;48.770;8.944;2023-06-05T12:07:35;1.77;;;1.40;;
31128;SDS011;17777;48.770;8.944;2023-06-05T12:10:11;3.85;;;1.50;;
31128;SDS011;17777;48.770;8.944;2023-06-05T12:12:52;1.50;;;1.40;;
31128;SDS011;17777;48.770;8.944;2023-06-05T12:15:19;1.48;;;1.30;;
31128;SDS011;17777;48.770;8.944;2023-06-05T12:17:49;1.20;;;1.02;;
31128;SDS011;17777;48.770;8.944;2023-06-05T12:20:17;7.25;;;1.67;;
31128;SDS011;17777;48.770;8.944;2023-06-05T12:22:45;2.67;;;1.50;;
31128;SDS011;17777;48.770;8.944;2023-06-05T12:25:17;1.40;;;1.27;;
31128;SDS011;17777;48.770;8.944;2023-06-05T12:27:45;3.30;;;1.40;;
31128;SDS011;17777;48.770;8.944;2023-06-05T12:30:12;4.43;;;1.60;;
31128;SDS011;17777;48.770;8.944;2023-06-05T12:32:39;2.10;;;1.50;;
31128;SDS011;17777;48.770;8.944;2023-06-05T12:35:05;2.13;;;1.60;;
31128;SDS011;17777;48.770;8.944;2023-06-05T12:37:46;2.25;;;1.50;;
31128;SDS011;17777;48.770;8.944;2023-06-05T12:40:14;3.42;;;1.45;;
31128;SDS011;17777;48.770;8.944;2023-06-05T12:42:45;1.50;;;1.40;;
31128;SDS011;17777;48.770;8.944;2023-06-05T12:45:13;3.65;;;1.60;;
31128;SDS011;17777;48.770;8.944;2023-06-05T12:47:39;1.40;;;1.30;;
31128;SDS011;17777;48.770;8.944;2023-06-05T12:50:06;1.27;;;1.17;;
31128;SDS011;17777;48.770;8.944;2023-06-05T12:52:37;1.67;;;1.48;;
31128;SDS011;17777;48.770;8.944;2023-06-05T12:55:07;2.50;;;1.40;;
31128;SDS011;17777;48.770;8.944;2023-06-05T12:57:34;3.53;;;1.65;;
31128;SDS011;17777;48.770;8.944;2023-06-05T13:00:02;2.60;;;1.25;;
31128;SDS011;17777;48.770;8.944;2023-06-05T13:02:40;1.38;;;1.10;;
31128;SDS011;17777;48.770;8.944;2023-06-05T13:05:16;1.98;;;1.25;;
31128;SDS011;17777;48.770;8.944;2023-06-05T13:07:42;8.65;;;1.50;;
31128;SDS011;17777;48.770;8.944;2023-06-05T13:10:08;1.42;;;1.27;;
31128;SDS011;17777;48.770;8.944;2023-06-05T13:12:36;1.85;;;1.40;;
31128;SDS011;17777;48.770;8.944;2023-06-05T13:15:02;5.70;;;1.48;;
31128;SDS011;17777;48.770;8.944;2023-06-05T13:17:31;1.50;;;1.40;;
31128;SDS011;17777;48.770;8.944;2023-06-05T13:19:59;3.45;;;1.20;;
31128;SDS011;17777;48.770;8.944;2023-06-05T13:22:25;1.40;;;1.30;;
31128;SDS011;17777;48.770;8.944;2023-06-05T13:24:51;1.65;;;1.52;;
31128;SDS011;17777;48.770;8.944;2023-06-05T13:27:17;3.10;;;1.60;;
31128;SDS011;17777;48.770;8.944;2023-06-05T13:29:44;5.45;;;1.60;;
31128;SDS011;17777;48.770;8.944;2023-06-05T13:32:10;1.55;;;1.45;;
31128;SDS011;17777;48.770;8.944;2023-06-05T13:34:36;1.52;;;1.30;;
31128;SDS011;17777;48.770;8.944;2023-06-05T13:37:02;3.05;;;1.52;;
31128;SDS011;17777;48.770;8.944;2023-06-05T13:39:28;2.50;;;1.83;;
31128;SDS011;17777;48.770;8.944;2023-06-05T13:41:54;1.40;;;1.30;;
31128;SDS011;17777;48.770;8.944;2023-06-05T13:44:20;2.08;;;1.60;;
31128;SDS011;17777;48.770;8.944;2023-06-05T13:46:46;5.07;;;2.03;;
31128;SDS011;17777;48.770;8.944;2023-06-05T13:49:12;1.63;;;1.52;;
31128;SDS011;17777;48.770;8.944;2023-06-05T13:51:38;3.40;;;1.58;;
31128;SDS011;17777;48.770;8.944;2023-06-05T13:54:04;2.25;;;1.75;;
31128;SDS011;17777;48.770;8.944;2023-06-05T13:56:30;2.05;;;1.60;;
31128;SDS011;17777;48.770;8.944;2023-06-05T13:58:56;2.05;;;1.48;;
31128;SDS011;17777;48.770;8.944;2023-06-05T14:01:22;1.90;;;1.40;;
31128;SDS011;17777;48.770;8.944;2023-06-05T14:03:49;5.38;;;1.60;;
31128;SDS011;17777;48.770;8.944;2023-06-05T14:06:16;1.77;;;1.55;;
31128;SDS011;17777;48.770;8.944;2023-06-05T14:08:42;1.60;;;1.50;;
31128;SDS011;17777;48.770;8.944;2023-06-05T14:11:09;2.28;;;1.80;;
31128;SDS011;17777;48.770;8.944;2023-06-05T14:13:35;3.20;;;1.73;;
31128;SDS011;17777;48.770;8.944;2023-06-05T14:16:01;2.15;;;1.60;;
31128;SDS011;17777;48.770;8.944;2023-06-05T14:18:28;2.42;;;1.92;;
31128;SDS011;17777;48.770;8.944;2023-06-05T14:20:55;3.10;;;1.80;;
31128;SDS011;17777;48.770;8.944;2023-06-05T14:23:22;1.80;;;1.58;;
31128;SDS011;17777;48.770;8.944;2023-06-05T14:25:49;4.15;;;1.73;;
31128;SDS011;17777;48.770;8.944;2023-06-05T14:28:16;3.47;;;1.88;;
31128;SDS011;17777;48.770;8.944;2023-06-05T14:30:42;1.60;;;1.50;;
31128;SDS011;17777;48.770;8.944;2023-06-05T14:33:09;1.63;;;1.52;;
31128;SDS011;17777;48.770;8.944;2023-06-05T14:35:35;1.92;;;1.83;;
31128;SDS011;17777;48.770;8.944;2023-06-05T14:38:01;2.63;;;1.70;;
31128;SDS011;17777;48.770;8.944;2023-06-05T14:40:27;1.73;;;1.60;;
31128;SDS011;17777;48.770;8.944;2023-06-05T14:42:52;1.77;;;1.67;;
31128;SDS011;17777;48.770;8.944;2023-06-05T14:45:18;2.13;;;1.45;;
31128;SDS011;17777;48.770;8.944;2023-06-05T14:47:44;8.00;;;1.65;;
31128;SDS011;17777;48.770;8.944;2023-06-05T14:50:12;1.95;;;1.58;;
31128;SDS011;17777;48.770;8.944;2023-06-05T14:52:38;1.85;;;1.65;;
31128;SDS011;17777;48.770;8.944;2023-06-05T14:55:03;2.08;;;1.90;;
31128;SDS011;17777;48.770;8.944;2023-06-05T14:57:30;1.70;;;1.60;;
31128;SDS011;17777;48.770;8.944;2023-06-05T14:59:55;1.92;;;1.60;;
31128;SDS011;17777;48.770;8.944;2023-06-05T15:02:21;2.08;;;1.88;;
31128;SDS011;17777;48.770;8.944;2023-06-05T15:04:48;4.32;;;1.67;;
31128;SDS011;17777;48.770;8.944;2023-06-05T15:07:18;1.70;;;1.60;;
31128;SDS011;17777;48.770;8.944;2023-06-05T15:09:47;2.95;;;1.50;;
31128;SDS011;17777;48.770;8.944;2023-06-05T15:12:13;1.73;;;1.55;;
31128;SDS011;17777;48.770;8.944;2023-06-05T15:14:40;1.90;;;1.70;;
31128;SDS011;17777;48.770;8.944;2023-06-05T15:17:06;1.60;;;1.33;;
31128;SDS011;17777;48.770;8.944;2023-06-05T15:19:33;2.17;;;1.50;;
31128;SDS011;17777;48.770;8.944;2023-06-05T15:21:59;1.55;;;1.40;;
31128;SDS011;17777;48.770;8.944;2023-06-05T15:24:26;1.73;;;1.33;;
31128;SDS011;17777;48.770;8.944;2023-06-05T15:26:52;1.67;;;1.50;;
31128;SDS011;17777;48.770;8.944;2023-06-05T15:29:19;2.60;;;2.08;;
31128;SDS011;17777;48.770;8.944;2023-06-05T15:31:45;1.70;;;1.60;;
31128;SDS011;17777;48.770;8.944;2023-06-05T15:34:11;1.73;;;1.63;;
31128;SDS011;17777;48.770;8.944;2023-06-05T15:36:37;1.77;;;1.60;;